Airfield :
LOGIN :

Register | Disclaimer

   EN    FR    IT 

 










Legend :    VFR   Marginal VFR   IFR   Intensive IFR   Very Intensive IFR
Visi :
Ceiling :
>= 8 km
>= 3000ft
5 to 8 km
1000 to 3000 ft
1500m to 5 km
500 to 1000 ft
800 to 1500m
200 to 500 ft
< 800m
< 200 ft
Symbols :   Thunderstorms  Fog  Heavy snow  Heavy precipitations  Wind > 20 kt
SIGMETs :     Misc.  Thunderstorms  Icing  Turbulence  Mountain Waves  Volcanic Ashes






- Airport Elevation : 13 ft
- IATA code : LYX


EGMD - Lydd

CURRENT METAR :
  • 080250Z AUTO 34004KT 300V020 9999 NCD 20/16 Q1018

EXPIRED METARs :
  • 080220Z AUTO 06003KT 9999 NCD 21/17 Q1018
  • 080150Z AUTO 05006KT 9999 NCD 21/17 Q1017
  • 080120Z AUTO VRB02KT 9999 NCD 22/17 Q1018
  • 080050Z AUTO 05006KT 9999 NCD 22/17 Q1018
  • 080020Z AUTO 06006KT 9999 NCD 21/17 Q1018

TAF TAF EGMD
Valid from the 08 at 03:00 until the 08 at 12:00 UTC


080157Z 0803/0812 08010KT CAVOK
TEMPO 0803/0809 VRB03KT
PROB30
TEMPO 0803/0806 SHRA
ATIS : +44 1797 322 422



MET'MAP, your aeronautical weather chart ! - Copyright ORBIFLY December 2007 - Disclaimer

ORBIFLY MET'MAP TEAM :

Programming & Development : Alexandra Zaïnal
Concept & original design : Baudouin d'Aumeries
Assistance for programming : Marc-Olivier Méhu
Technical & hardware support : Manuel Goepfert

Contact : metmap@orbifly.com




SOURCES & CREDITS :

   NOAA